Time;durP1;ratioP1;P1;durP2;ratioP2;P2;SDS_P1;SDS_P2;PMS_P1;PMS_P2;Temp;Humidity;BMP_temperature;BMP_pressure;BME280_temperature;BME280_humidity;BME280_pressure;Samples;Min_cycle;Max_cycle;Signal;HPM_P1;HPM_P2
2023/01/29 00:02:13;;;;;;;16.77;11.48;;;;;;;4.18;100.00;103000.78;10414620;28;20038;-69
2023/01/29 00:07:14;;;;;;;21.38;11.55;;;;;;;4.17;100.00;103005.25;10414675;28;20049;-69
2023/01/29 00:12:14;;;;;;;17.20;11.63;;;;;;;4.17;100.00;102997.22;10450431;28;20030;-69
2023/01/29 00:17:14;;;;;;;18.25;12.75;;;;;;;4.16;100.00;102995.50;10422577;28;20081;-69
2023/01/29 00:22:15;;;;;;;13.98;11.90;;;;;;;4.17;100.00;102999.03;10403923;28;20164;-69
2023/01/29 00:27:15;;;;;;;14.57;13.07;;;;;;;4.10;100.00;102993.22;10420914;28;20120;-69
2023/01/29 00:32:16;;;;;;;13.55;10.45;;;;;;;4.14;100.00;102991.19;10421273;28;20091;-69
2023/01/29 00:37:16;;;;;;;23.20;12.88;;;;;;;4.15;100.00;102995.63;10421653;28;20038;-69
2023/01/29 00:47:36;;;;;;;14.88;11.95;;;;;;;4.17;100.00;102966.84;10421229;28;20030;-69
2023/01/29 00:52:37;;;;;;;14.75;13.23;;;;;;;4.11;100.00;102956.53;10420445;28;20479;-69
2023/01/29 00:57:37;;;;;;;16.60;12.30;;;;;;;4.16;100.00;102957.09;10420186;28;20026;-70
2023/01/29 01:07:57;;;;;;;18.52;13.30;;;;;;;4.18;100.00;102949.81;10420010;28;20033;-69
2023/01/29 01:13:00;;;;;;;19.25;12.75;;;;;;;4.26;100.00;102960.00;10451703;28;20030;-69
2023/01/29 01:18:00;;;;;;;16.00;11.95;;;;;;;4.18;100.00;102956.03;10420519;28;20046;-69
2023/01/29 01:23:01;;;;;;;17.00;11.77;;;;;;;4.22;100.00;102953.16;10416547;28;20045;-69
2023/01/29 01:28:01;;;;;;;17.77;12.52;;;;;;;4.22;100.00;102967.41;10418560;28;20125;-69
2023/01/29 01:33:02;;;;;;;19.38;13.77;;;;;;;4.23;100.00;102971.81;10418380;28;20553;-69
2023/01/29 01:38:03;;;;;;;24.67;13.48;;;;;;;4.23;100.00;102969.13;10418838;28;20453;-69
2023/01/29 01:43:05;;;;;;;24.80;15.32;;;;;;;4.22;100.00;102972.78;10418524;28;20500;-69
2023/01/29 01:48:19;;;;;;;18.58;14.05;;;;;;;4.19;100.00;102971.16;10418280;28;20424;-69
2023/01/29 01:53:23;;;;;;;19.05;15.52;;;;;;;4.20;100.00;102980.06;10419720;28;20061;-69
2023/01/29 01:58:26;;;;;;;20.10;15.55;;;;;;;4.21;100.00;102957.63;10449932;28;20453;-69
2023/01/29 02:14:07;;;;;;;23.75;18.52;;;;;;;4.16;100.00;102943.69;10417402;28;20501;-69
2023/01/29 02:19:15;;;;;;;23.42;17.85;;;;;;;4.17;100.00;102940.91;10416039;28;20068;-69
2023/01/29 02:24:21;;;;;;;23.67;17.60;;;;;;;4.18;100.00;102948.00;10431738;28;20385;-69
2023/01/29 02:29:29;;;;;;;27.27;19.52;;;;;;;4.19;100.00;102962.25;10448396;28;20036;-70
2023/01/29 02:35:30;;;;;;;24.80;15.32;;;;;;;4.12;100.00;102960.97;10430814;28;20033;-69
2023/01/29 02:40:37;;;;;;;25.70;19.60;;;;;;;4.13;100.00;102960.84;10434524;28;20117;-68
2023/01/29 02:45:45;;;;;;;24.35;16.52;;;;;;;4.10;100.00;102955.69;10448940;28;20045;-67
2023/01/29 02:50:50;;;;;;;24.50;16.85;;;;;;;4.12;100.00;102944.88;10448355;28;20112;-67
2023/01/29 02:56:08;;;;;;;26.67;18.10;;;;;;;4.20;100.00;102948.72;10430708;28;20121;-68
2023/01/29 03:01:15;;;;;;;26.40;17.52;;;;;;;4.16;100.00;102949.91;10415448;28;20029;-68
2023/01/29 03:06:24;;;;;;;21.13;16.25;;;;;;;4.15;100.00;102945.53;10430537;28;20036;-68
2023/01/29 03:11:27;;;;;;;22.98;17.65;;;;;;;4.13;100.00;102941.22;10415848;28;20057;-68
2023/01/29 03:16:41;;;;;;;28.65;16.75;;;;;;;4.15;100.00;102934.81;10446561;28;20053;-68
2023/01/29 03:21:57;;;;;;;22.45;14.77;;;;;;;4.07;100.00;102934.44;10415011;28;20026;-67
2023/01/29 03:32:20;;;;;;;22.08;15.98;;;;;;;4.03;100.00;102927.59;10413848;28;20033;-67
2023/01/29 03:37:33;;;;;;;24.95;16.30;;;;;;;4.07;100.00;102928.25;10447031;28;20061;-68
2023/01/29 03:42:47;;;;;;;23.60;17.52;;;;;;;4.10;100.00;102922.66;10446482;28;20037;-67
2023/01/29 03:48:01;;;;;;;21.17;15.20;;;;;;;4.09;100.00;102931.69;10450995;28;20037;-67
2023/01/29 03:53:08;;;;;;;18.40;13.80;;;;;;;4.00;100.00;102914.41;10454180;28;20079;-67
2023/01/29 03:58:58;;;;;;;21.40;15.82;;;;;;;3.97;100.00;102917.28;10422149;28;20124;-68
2023/01/29 04:04:10;;;;;;;18.83;14.32;;;;;;;4.02;100.00;102898.19;10395179;28;20041;-68
2023/01/29 04:09:19;;;;;;;20.17;14.85;;;;;;;4.00;100.00;102887.59;10421739;28;20043;-68
2023/01/29 04:14:19;;;;;;;26.58;14.70;;;;;;;4.00;100.00;102898.31;10421732;28;20107;-67
2023/01/29 04:19:19;;;;;;;24.83;14.50;;;;;;;4.09;100.00;102899.50;10454169;28;20091;-67
2023/01/29 04:24:20;;;;;;;21.70;13.05;;;;;;;4.07;100.00;102877.28;10421184;28;20541;-67
2023/01/29 04:29:39;;;;;;;17.33;13.52;;;;;;;4.11;100.00;102885.00;10436310;28;20042;-68
2023/01/29 04:35:13;;;;;;;17.20;14.20;;;;;;;4.12;100.00;102880.53;10452421;28;20034;-68
2023/01/29 04:40:19;;;;;;;14.60;11.75;;;;;;;4.01;100.00;102865.16;10421189;28;20458;-68
2023/01/29 04:45:47;;;;;;;17.77;15.47;;;;;;;4.10;100.00;102861.84;10420449;28;20059;-68
2023/01/29 04:51:13;;;;;;;20.00;14.98;;;;;;;4.01;100.00;102846.41;10448385;28;20442;-67
2023/01/29 04:56:28;;;;;;;27.08;15.73;;;;;;;4.04;100.00;102850.69;10420147;28;20029;-67
2023/01/29 05:01:31;;;;;;;20.67;14.90;;;;;;;4.06;100.00;102851.47;10420818;28;20045;-68
2023/01/29 05:06:32;;;;;;;22.35;16.40;;;;;;;4.10;100.00;102856.50;10435059;28;20047;-68
2023/01/29 05:11:32;;;;;;;22.20;15.30;;;;;;;4.13;100.00;102844.69;10452516;28;20033;-67
2023/01/29 05:16:48;;;;;;;18.27;15.50;;;;;;;4.14;100.00;102836.53;10417930;28;20480;-68
2023/01/29 05:21:48;;;;;;;22.33;14.88;;;;;;;4.17;100.00;102839.00;10449941;28;20500;-67
2023/01/29 05:32:09;;;;;;;23.50;14.77;;;;;;;4.15;100.00;102816.81;10417684;28;20120;-67
2023/01/29 05:37:09;;;;;;;19.52;16.27;;;;;;;4.18;100.00;102813.91;10418199;28;20461;-68
2023/01/29 05:42:09;;;;;;;19.02;15.63;;;;;;;4.20;100.00;102817.34;10419358;28;20037;-67
2023/01/29 05:47:10;;;;;;;23.15;16.45;;;;;;;4.21;100.00;102810.13;10418537;28;20492;-67
2023/01/29 05:52:10;;;;;;;22.42;15.48;;;;;;;4.24;100.00;102817.97;10417665;28;20440;-67
2023/01/29 05:57:11;;;;;;;24.15;15.27;;;;;;;4.21;100.00;102820.88;10418694;28;20083;-67
2023/01/29 06:02:11;;;;;;;24.80;15.82;;;;;;;4.18;100.00;102815.75;10417844;28;20041;-68
2023/01/29 06:07:11;;;;;;;21.13;16.33;;;;;;;4.23;100.00;102808.22;10450173;28;20464;-68
2023/01/29 06:12:12;;;;;;;20.70;16.13;;;;;;;4.22;100.00;102819.06;10416401;28;20040;-68
2023/01/29 06:17:12;;;;;;;24.60;16.95;;;;;;;4.26;100.00;102810.69;10416416;28;20083;-68
2023/01/29 06:22:13;;;;;;;27.08;18.70;;;;;;;4.26;100.00;102801.78;10416037;28;20040;-68
2023/01/29 06:27:13;;;;;;;24.05;17.10;;;;;;;4.20;100.00;102803.94;10415906;28;20042;-68
2023/01/29 06:32:13;;;;;;;19.42;14.60;;;;;;;4.14;100.00;102779.38;10416459;28;20454;-68
2023/01/29 06:37:14;;;;;;;20.92;16.05;;;;;;;4.26;100.00;102794.59;10448569;28;20033;-68
2023/01/29 06:42:14;;;;;;;23.70;18.02;;;;;;;4.18;100.00;102794.31;10416897;28;20541;-68
2023/01/29 06:47:14;;;;;;;22.38;16.67;;;;;;;4.19;100.00;102785.28;10416825;28;20037;-67
2023/01/29 06:52:15;;;;;;;26.90;17.35;;;;;;;4.09;100.00;102792.28;10421768;28;20044;-69
2023/01/29 06:57:15;;;;;;;19.73;16.45;;;;;;;4.11;100.00;102767.03;10453250;28;20143;-69
2023/01/29 07:02:16;;;;;;;14.18;12.45;;;;;;;4.12;100.00;102768.78;10420747;28;20060;-68
2023/01/29 07:07:17;;;;;;;21.83;17.17;;;;;;;4.12;100.00;102773.28;10420042;28;20061;-68
2023/01/29 07:12:17;;;;;;;17.85;15.52;;;;;;;4.12;100.00;102779.50;10415257;28;20047;-68
2023/01/29 07:17:19;;;;;;;22.60;17.58;;;;;;;4.17;100.00;102776.47;10414503;28;20473;-67
2023/01/29 07:22:19;;;;;;;22.90;16.98;;;;;;;4.11;100.00;102788.50;10420061;28;20045;-67
2023/01/29 07:27:20;;;;;;;22.20;17.02;;;;;;;4.18;100.00;102792.47;10423435;28;20465;-67
2023/01/29 07:32:20;;;;;;;28.75;19.50;;;;;;;4.21;100.00;102794.06;10424708;28;20049;-68
2023/01/29 07:37:20;;;;;;;28.05;18.92;;;;;;;4.24;100.00;102792.97;10423076;28;20512;-68
2023/01/29 07:42:21;;;;;;;17.65;15.82;;;;;;;4.25;100.00;102784.00;10421205;28;20041;-68
2023/01/29 07:47:21;;;;;;;25.48;18.05;;;;;;;4.20;100.00;102765.53;10422419;28;20117;-68
2023/01/29 07:52:22;;;;;;;27.13;18.75;;;;;;;4.26;100.00;102769.59;10422190;28;20029;-67
2023/01/29 07:57:22;;;;;;;21.98;15.60;;;;;;;4.28;100.00;102773.03;10422467;28;20033;-68
2023/01/29 08:02:22;;;;;;;17.05;14.50;;;;;;;4.25;100.00;102773.25;10420656;28;20037;-68
2023/01/29 08:07:23;;;;;;;22.85;15.63;;;;;;;4.23;100.00;102765.31;10454404;28;20041;-68
2023/01/29 08:12:23;;;;;;;26.05;19.48;;;;;;;4.28;100.00;102768.53;10420396;28;20456;-68
2023/01/29 08:17:24;;;;;;;25.20;19.73;;;;;;;4.30;100.00;102766.56;10421257;28;20089;-68
2023/01/29 08:22:24;;;;;;;21.13;17.27;;;;;;;4.29;100.00;102764.88;10420818;28;20061;-68
2023/01/29 08:27:24;;;;;;;27.88;21.00;;;;;;;4.35;100.00;102756.38;10420986;28;20079;-67
2023/01/29 08:32:25;;;;;;;30.65;21.33;;;;;;;4.30;100.00;102745.13;10419757;28;20080;-68
2023/01/29 08:37:25;;;;;;;26.13;17.48;;;;;;;4.33;100.00;102744.06;10419964;28;20030;-68
2023/01/29 08:42:26;;;;;;;20.60;18.10;;;;;;;4.40;100.00;102739.94;10421086;28;20044;-68
2023/01/29 08:47:26;;;;;;;32.95;19.38;;;;;;;4.43;100.00;102737.91;10419207;28;20485;-68
2023/01/29 08:52:26;;;;;;;23.05;17.95;;;;;;;4.35;100.00;102737.63;10420034;28;20123;-68
2023/01/29 08:57:27;;;;;;;28.80;20.90;;;;;;;4.47;100.00;102735.88;10419446;28;20108;-68
2023/01/29 09:02:27;;;;;;;33.72;21.80;;;;;;;4.55;100.00;102732.59;10453268;28;20041;-68
2023/01/29 09:07:28;;;;;;;37.78;22.17;;;;;;;4.58;100.00;102727.00;10419593;28;20354;-69
2023/01/29 09:12:28;;;;;;;30.50;21.30;;;;;;;4.63;100.00;102719.50;10451917;28;20030;-68
2023/01/29 09:17:29;;;;;;;35.10;26.00;;;;;;;4.63;100.00;102723.03;10418349;28;20089;-68
2023/01/29 09:22:29;;;;;;;33.65;23.15;;;;;;;4.63;100.00;102730.22;10418090;28;20040;-69
2023/01/29 09:27:30;;;;;;;28.15;21.70;;;;;;;4.68;100.00;102716.47;10418789;28;20397;-68
2023/01/29 09:32:31;;;;;;;29.10;20.58;;;;;;;4.72;100.00;102718.78;10418547;28;20037;-68
2023/01/29 09:37:31;;;;;;;31.90;23.75;;;;;;;4.78;100.00;102723.69;10452269;28;20469;-68
2023/01/29 09:42:41;;;;;;;31.08;21.48;;;;;;;4.77;100.00;102715.78;10425210;28;20432;-68
2023/01/29 09:47:43;;;;;;;24.65;19.27;;;;;;;4.80;100.00;102723.59;10454499;28;20060;-70
2023/01/29 09:52:49;;;;;;;33.35;21.88;;;;;;;4.76;100.00;102712.25;10422059;28;20120;-69
2023/01/29 09:58:01;;;;;;;40.63;23.45;;;;;;;4.80;100.00;102710.19;10423334;28;20033;-68
2023/01/29 10:03:21;;;;;;;33.53;22.30;;;;;;;4.77;100.00;102703.19;10437903;28;20049;-68
2023/01/29 10:08:28;;;;;;;29.73;22.42;;;;;;;4.63;100.00;102698.03;10417531;28;20032;-69
2023/01/29 10:13:36;;;;;;;31.95;24.67;;;;;;;4.72;100.00;102693.78;10416869;28;20025;-68
2023/01/29 10:18:42;;;;;;;35.85;23.50;;;;;;;4.78;100.00;102693.31;10430836;28;20049;-68
2023/01/29 10:23:48;;;;;;;30.80;22.58;;;;;;;4.76;100.00;102682.72;10416270;28;20039;-68
2023/01/29 10:28:49;;;;;;;29.07;22.67;;;;;;;4.84;100.00;102693.72;10431977;28;20438;-68
2023/01/29 10:33:51;;;;;;;34.15;24.17;;;;;;;4.73;100.00;102696.38;10415072;28;20029;-67
2023/01/29 10:38:52;;;;;;;37.08;24.23;;;;;;;4.86;100.00;102680.19;10447612;28;20105;-68
2023/01/29 10:44:14;;;;;;;31.60;23.80;;;;;;;4.87;100.00;102672.00;10431580;28;20036;-68
2023/01/29 10:49:41;;;;;;;28.33;20.20;;;;;;;4.78;100.00;102663.78;10432415;28;20088;-68
2023/01/29 10:54:48;;;;;;;31.50;24.42;;;;;;;4.90;100.00;102663.72;10413721;28;20099;-68
2023/01/29 11:00:11;;;;;;;34.13;23.60;;;;;;;4.96;100.00;102645.44;10415076;28;20465;-69
2023/01/29 11:05:33;;;;;;;31.77;23.00;;;;;;;5.05;100.00;102632.16;10446528;28;20385;-67
2023/01/29 11:10:38;;;;;;;30.70;24.33;;;;;;;5.01;100.00;102628.00;10415917;28;20032;-69
2023/01/29 11:15:38;;;;;;;32.97;24.90;;;;;;;5.08;100.00;102618.50;10430967;28;20119;-69
2023/01/29 11:20:42;;;;;;;31.80;24.30;;;;;;;5.11;100.00;102637.06;10413255;28;20615;-68
2023/01/29 11:25:50;;;;;;;33.00;20.98;;;;;;;5.14;100.00;102622.53;10429947;28;20041;-70
2023/01/29 11:30:51;;;;;;;34.20;22.75;;;;;;;5.21;100.00;102623.75;10429751;28;20036;-68
2023/01/29 11:35:51;;;;;;;32.10;20.55;;;;;;;5.08;100.00;102613.13;10413587;28;20445;-68
2023/01/29 11:40:52;;;;;;;29.58;23.08;;;;;;;5.15;100.00;102602.75;10430923;28;20049;-68
2023/01/29 11:45:53;;;;;;;35.88;24.38;;;;;;;5.17;100.00;102590.09;10414452;28;20120;-68
2023/01/29 11:50:59;;;;;;;26.33;19.55;;;;;;;5.16;100.00;102582.97;10413403;28;20381;-69
2023/01/29 11:56:01;;;;;;;44.53;26.20;;;;;;;5.13;100.00;102573.31;10445987;28;20122;-68
2023/01/29 12:01:02;;;;;;;32.72;23.88;;;;;;;5.21;100.00;102577.25;10445531;28;20022;-68
2023/01/29 12:06:07;;;;;;;37.60;25.38;;;;;;;5.27;100.00;102566.03;10446682;28;20116;-68
2023/01/29 12:11:22;;;;;;;26.13;15.25;;;;;;;5.29;100.00;102554.16;10419625;28;20033;-68
2023/01/29 12:17:02;;;;;;;35.13;22.30;;;;;;;5.43;100.00;102536.13;10421107;28;20068;-69
2023/01/29 12:22:43;;;;;;;32.70;22.10;;;;;;;5.50;100.00;102513.13;10413273;28;20055;-68
2023/01/29 12:28:16;;;;;;;31.65;22.30;;;;;;;5.72;100.00;102510.41;10410959;28;20049;-69
2023/01/29 12:33:30;;;;;;;28.45;21.60;;;;;;;5.80;100.00;102507.91;10418284;28;20042;-68
2023/01/29 12:38:31;;;;;;;28.42;22.08;;;;;;;5.72;100.00;102505.03;10421530;28;20068;-69
2023/01/29 12:44:07;;;;;;;25.73;18.98;;;;;;;5.68;100.00;102497.31;10420951;28;20128;-70
2023/01/29 12:49:34;;;;;;;27.02;20.50;;;;;;;5.63;100.00;102483.44;10420176;28;20038;-69
2023/01/29 12:54:48;;;;;;;;;;;;;;;5.65;100.00;102465.31;10422488;28;20049;-68
2023/01/29 13:00:01;;;;;;;24.30;19.55;;;;;;;5.62;100.00;102450.31;10439353;28;20000;-70
2023/01/29 13:05:33;;;;;;;32.30;20.20;;;;;;;5.69;100.00;102432.72;10452516;28;20359;-69
2023/01/29 13:10:39;;;;;;;33.08;21.85;;;;;;;5.77;100.00;102403.34;10452428;28;20397;-69
2023/01/29 13:15:41;;;;;;;26.90;20.40;;;;;;;5.92;100.00;102401.19;10418706;28;20030;-68
2023/01/29 13:20:41;;;;;;;25.85;21.52;;;;;;;6.00;100.00;102384.47;10434330;28;20140;-69
2023/01/29 13:25:42;;;;;;;23.30;18.65;;;;;;;5.88;100.00;102374.72;10434303;28;20107;-68
2023/01/29 13:30:42;;;;;;;25.88;17.70;;;;;;;5.88;100.00;102369.34;10418198;28;20033;-68
2023/01/29 13:35:43;;;;;;;22.55;18.30;;;;;;;5.75;100.00;102367.69;10418430;28;20036;-68
2023/01/29 13:40:47;;;;;;;25.58;17.05;;;;;;;5.83;100.00;102353.59;10449430;28;20025;-67
2023/01/29 13:45:48;;;;;;;26.35;18.83;;;;;;;5.77;100.00;102371.06;10449214;28;20108;-69
2023/01/29 13:50:48;;;;;;;23.35;16.95;;;;;;;5.66;100.00;102359.53;10433058;28;20021;-69
2023/01/29 13:55:49;;;;;;;22.63;18.17;;;;;;;5.63;100.00;102333.78;10432797;28;20080;-68
2023/01/29 14:00:50;;;;;;;24.20;18.63;;;;;;;5.62;100.00;102348.22;10432883;28;20531;-68
2023/01/29 14:05:53;;;;;;;33.75;20.77;;;;;;;5.53;100.00;102338.22;10417928;28;20052;-68
2023/01/29 14:11:11;;;;;;;31.75;19.15;;;;;;;5.53;100.00;102335.53;10416725;28;20075;-68
2023/01/29 14:16:12;;;;;;;23.33;18.45;;;;;;;5.49;100.00;102326.91;10417317;28;20060;-69
2023/01/29 14:21:15;;;;;;;25.90;19.60;;;;;;;5.55;100.00;102317.44;10419951;28;20098;-68
2023/01/29 14:26:36;;;;;;;32.17;18.58;;;;;;;5.52;100.00;102320.38;10415425;28;20785;-69
2023/01/29 14:31:39;;;;;;;32.90;19.02;;;;;;;5.51;100.00;102310.63;10415355;28;20128;-69
2023/01/29 14:36:40;;;;;;;26.27;17.27;;;;;;;5.41;100.00;102307.03;10413890;28;20037;-68
2023/01/29 14:41:41;;;;;;;24.75;17.05;;;;;;;5.21;100.00;102293.44;10447859;28;20065;-68
2023/01/29 14:46:42;;;;;;;27.35;17.20;;;;;;;5.30;100.00;102298.03;10430493;28;20060;-68
2023/01/29 14:51:42;;;;;;;19.83;14.25;;;;;;;5.32;100.00;102300.59;10414628;28;20099;-68
2023/01/29 14:56:47;;;;;;;29.40;17.27;;;;;;;5.23;100.00;102288.81;10447474;28;20044;-68
2023/01/29 15:01:54;;;;;;;21.48;16.98;;;;;;;5.26;100.00;102283.13;10430469;28;20025;-67
2023/01/29 15:06:59;;;;;;;26.70;19.20;;;;;;;5.27;100.00;102278.66;10451375;28;20030;-68
2023/01/29 15:12:37;;;;;;;23.92;18.98;;;;;;;5.25;100.00;102276.06;10416041;28;20025;-68
2023/01/29 15:17:37;;;;;;;;;;;;;;;5.11;100.00;102274.56;10414909;28;20509;-67
2023/01/29 15:22:41;;;;;;;20.50;14.70;;;;;;;4.82;100.00;102266.25;10415495;28;19932;-68
2023/01/29 15:27:42;;;;;;;25.00;17.02;;;;;;;4.75;100.00;102265.00;10415206;28;20129;-67
2023/01/29 15:32:43;;;;;;;28.00;18.05;;;;;;;4.81;100.00;102261.81;10414790;28;20148;-68
2023/01/29 15:37:44;;;;;;;24.50;16.98;;;;;;;4.78;100.00;102254.03;10446654;28;20133;-67
2023/01/29 15:42:47;;;;;;;29.38;18.70;;;;;;;4.82;100.00;102252.81;10433480;28;20112;-67
2023/01/29 15:47:47;;;;;;;36.25;21.13;;;;;;;4.77;100.00;102257.69;10422439;28;20397;-67
2023/01/29 15:52:49;;;;;;;30.65;20.98;;;;;;;4.85;100.00;102267.78;10422424;28;20040;-67
2023/01/29 15:57:49;;;;;;;27.85;19.92;;;;;;;4.88;100.00;102260.38;10437932;28;20033;-68
2023/01/29 16:02:50;;;;;;;29.17;20.27;;;;;;;4.94;100.00;102263.50;10454005;28;20473;-68
2023/01/29 16:07:50;;;;;;;25.25;16.65;;;;;;;4.93;100.00;102251.91;10436908;28;20112;-68
2023/01/29 16:12:51;;;;;;;33.28;20.38;;;;;;;4.93;100.00;102253.75;10420139;28;20033;-69
2023/01/29 16:17:52;;;;;;;24.83;18.65;;;;;;;4.97;100.00;102241.78;10453326;28;20437;-67
2023/01/29 16:22:52;;;;;;;22.60;16.88;;;;;;;5.05;100.00;102255.41;10452534;28;20064;-68
2023/01/29 16:27:52;;;;;;;30.88;21.85;;;;;;;5.01;100.00;102248.59;10420967;28;20120;-69
2023/01/29 16:32:59;;;;;;;27.30;19.77;;;;;;;5.15;100.00;102242.91;10420622;28;20037;-67
2023/01/29 16:38:03;;;;;;;25.52;20.55;;;;;;;5.14;100.00;102235.84;10435330;28;20053;-68
2023/01/29 16:43:15;;;;;;;26.75;21.20;;;;;;;5.18;100.00;102233.75;10420722;28;20037;-68
2023/01/29 16:48:26;;;;;;;24.42;19.45;;;;;;;5.18;100.00;102220.34;10421151;28;20040;-68
2023/01/29 16:53:26;;;;;;;19.17;16.35;;;;;;;5.21;100.00;102215.56;10419654;28;20129;-66
2023/01/29 16:58:28;;;;;;;24.90;19.27;;;;;;;5.18;100.00;102215.81;10418920;28;20120;-68
2023/01/29 17:03:30;;;;;;;26.65;20.27;;;;;;;5.16;100.00;102211.56;10434146;28;20040;-68
2023/01/29 17:08:34;;;;;;;30.50;18.20;;;;;;;5.15;100.00;102213.38;10418391;28;20033;-67
2023/01/29 17:13:39;;;;;;;31.73;18.58;;;;;;;5.06;100.00;102192.69;10418601;28;20164;-68
2023/01/29 17:18:39;;;;;;;29.67;19.73;;;;;;;5.04;100.00;102198.19;10434097;28;20050;-69
2023/01/29 17:23:39;;;;;;;32.78;21.13;;;;;;;5.07;100.00;102192.56;10419485;28;20053;-69
2023/01/29 17:28:40;;;;;;;38.38;20.70;;;;;;;5.01;100.00;102171.59;10453341;28;20052;-68
2023/01/29 17:33:42;;;;;;;22.65;18.83;;;;;;;5.01;100.00;102184.16;10452131;28;20473;-68
2023/01/29 17:38:43;;;;;;;32.40;20.13;;;;;;;5.08;100.00;102171.94;10418550;28;20036;-67
2023/01/29 17:43:44;;;;;;;40.58;18.63;;;;;;;5.06;100.00;102166.69;10451570;28;20037;-68
2023/01/29 17:48:45;;;;;;;24.40;17.70;;;;;;;5.00;100.00;102151.09;10419502;28;20037;-68
2023/01/29 17:53:45;;;;;;;30.63;20.88;;;;;;;5.03;100.00;102141.94;10417399;28;20095;-68
2023/01/29 17:58:45;;;;;;;31.23;20.88;;;;;;;5.02;100.00;102140.25;10417755;28;20525;-67
2023/01/29 18:03:46;;;;;;;25.92;17.77;;;;;;;5.01;100.00;102141.19;10417528;28;20485;-68
2023/01/29 18:08:46;;;;;;;30.75;18.55;;;;;;;4.94;100.00;102131.97;10417942;28;20033;-68
2023/01/29 18:13:47;;;;;;;25.73;20.35;;;;;;;4.96;100.00;102125.50;10416888;28;20480;-68
2023/01/29 18:18:48;;;;;;;31.15;20.23;;;;;;;4.98;100.00;102109.25;10416957;28;20157;-68
2023/01/29 18:23:48;;;;;;;26.83;20.30;;;;;;;4.97;100.00;102113.78;10415565;28;20435;-68
2023/01/29 18:28:48;;;;;;;24.65;19.13;;;;;;;4.98;100.00;102101.19;10416397;28;20389;-68
2023/01/29 18:33:49;;;;;;;26.20;20.70;;;;;;;5.00;100.00;102096.56;10431556;28;20041;-68
2023/01/29 18:38:49;;;;;;;27.33;19.88;;;;;;;5.00;100.00;102075.94;10417069;28;20067;-67
2023/01/29 18:43:51;;;;;;;22.63;15.90;;;;;;;4.89;100.00;102076.00;10413915;28;20025;-67
2023/01/29 18:48:52;;;;;;;29.13;20.67;;;;;;;5.00;100.00;102067.03;10415466;28;20389;-67
2023/01/29 18:53:52;;;;;;;23.95;17.02;;;;;;;5.03;100.00;102047.97;10415351;28;20037;-67
2023/01/29 18:58:55;;;;;;;25.77;16.60;;;;;;;5.03;100.00;102047.97;10415432;28;20054;-68
2023/01/29 19:03:57;;;;;;;25.13;19.00;;;;;;;5.07;100.00;102052.06;10415583;28;20037;-68
2023/01/29 19:08:58;;;;;;;27.83;17.90;;;;;;;5.11;100.00;102050.84;10415286;28;20057;-68
2023/01/29 19:13:58;;;;;;;27.05;17.60;;;;;;;5.08;100.00;102040.38;10415489;28;20375;-68
2023/01/29 19:18:59;;;;;;;21.77;16.83;;;;;;;5.10;100.00;102035.69;10424211;28;20068;-68
2023/01/29 19:23:59;;;;;;;29.50;20.45;;;;;;;5.01;100.00;102040.06;10428283;28;20120;-67
2023/01/29 19:29:00;;;;;;;33.22;20.73;;;;;;;5.10;100.00;102014.22;10427743;28;20037;-68
2023/01/29 19:34:00;;;;;;;26.15;17.33;;;;;;;5.16;100.00;102013.69;10426781;28;20029;-68
2023/01/29 19:39:00;;;;;;;31.85;19.17;;;;;;;5.23;100.00;102030.09;10427785;28;20052;-67
2023/01/29 19:44:01;;;;;;;30.23;21.88;;;;;;;5.30;100.00;102036.66;10427595;28;20365;-68
2023/01/29 19:49:02;;;;;;;29.20;20.27;;;;;;;5.40;100.00;102042.06;10427734;28;20061;-68
2023/01/29 19:54:03;;;;;;;30.98;19.10;;;;;;;5.40;100.00;102039.38;10428341;28;20033;-68
2023/01/29 19:59:06;;;;;;;26.60;17.88;;;;;;;5.45;100.00;102029.91;10427732;28;20041;-68
2023/01/29 20:04:06;;;;;;;22.58;18.70;;;;;;;5.54;100.00;102015.66;10429341;28;20468;-68
2023/01/29 20:09:07;;;;;;;34.10;19.90;;;;;;;5.64;100.00;102021.06;10426920;28;20033;-68
2023/01/29 20:14:09;;;;;;;25.48;17.85;;;;;;;5.73;100.00;101984.44;10426699;28;20061;-69
2023/01/29 20:19:10;;;;;;;31.38;16.60;;;;;;;5.76;100.00;101976.97;10426264;28;20056;-68
2023/01/29 20:24:11;;;;;;;24.25;15.18;;;;;;;5.79;100.00;101997.34;10428531;28;20029;-68
2023/01/29 20:29:12;;;;;;;23.33;15.25;;;;;;;5.90;100.00;101990.97;10423794;28;20084;-68
2023/01/29 20:34:12;;;;;;;24.33;16.17;;;;;;;5.94;100.00;102003.19;10421816;28;20053;-68
2023/01/29 20:39:13;;;;;;;18.23;14.80;;;;;;;5.99;100.00;102003.59;10420757;28;20052;-67
2023/01/29 20:44:13;;;;;;;25.15;16.60;;;;;;;6.07;100.00;101984.94;10420507;28;20473;-68
2023/01/29 20:49:16;;;;;;;21.52;14.93;;;;;;;6.08;100.00;101981.25;10452294;28;20037;-68
2023/01/29 20:54:16;;;;;;;27.60;14.43;;;;;;;6.13;100.00;101960.19;10419956;28;20034;-67
2023/01/29 20:59:16;;;;;;;14.85;12.32;;;;;;;6.16;100.00;101959.91;10419967;28;20029;-68
2023/01/29 21:04:17;;;;;;;18.85;11.27;;;;;;;6.29;100.00;101979.28;10419510;28;20037;-68
2023/01/29 21:09:18;;;;;;;13.95;10.07;;;;;;;6.43;100.00;101977.97;10419595;28;20133;-68
2023/01/29 21:14:18;;;;;;;12.98;6.90;;;;;;;6.62;100.00;101979.78;10420625;28;20052;-68
2023/01/29 21:19:19;;;;;;;13.80;6.03;;;;;;;6.85;100.00;101985.66;10419064;28;20081;-66
2023/01/29 21:24:19;;;;;;;18.58;5.72;;;;;;;7.11;100.00;101975.06;10419122;28;20037;-68
2023/01/29 21:29:19;;;;;;;26.23;6.05;;;;;;;7.25;100.00;101981.00;10418426;28;20038;-68
2023/01/29 21:34:20;;;;;;;13.75;5.97;;;;;;;7.37;100.00;101937.53;10420052;28;20462;-68
2023/01/29 21:39:23;;;;;;;11.10;6.20;;;;;;;7.42;100.00;101902.03;10417286;28;20163;-69
2023/01/29 21:44:23;;;;;;;8.95;4.47;;;;;;;7.45;100.00;101877.47;10418090;28;20077;-68
2023/01/29 21:49:24;;;;;;;10.50;5.20;;;;;;;7.50;100.00;101825.78;10418543;28;20044;-67
2023/01/29 21:54:29;;;;;;;4.45;4.05;;;;;;;7.49;100.00;101845.66;10416290;28;20030;-67
2023/01/29 21:59:31;;;;;;;6.07;4.40;;;;;;;7.44;100.00;101890.09;10418185;28;20034;-68
2023/01/29 22:04:31;;;;;;;15.07;4.47;;;;;;;7.34;100.00;101888.44;10417228;28;20120;-68
2023/01/29 22:09:31;;;;;;;4.78;4.25;;;;;;;7.40;100.00;101882.47;10417308;28;20033;-68
2023/01/29 22:14:32;;;;;;;7.20;4.53;;;;;;;7.51;100.00;101886.78;10416911;28;20072;-67
2023/01/29 22:19:33;;;;;;;13.43;4.95;;;;;;;7.55;100.00;101880.94;10417106;28;20045;-68
2023/01/29 22:24:33;;;;;;;11.93;4.60;;;;;;;7.61;100.00;101885.72;10450081;28;20413;-68
2023/01/29 22:29:34;;;;;;;10.00;4.90;;;;;;;7.63;100.00;101869.41;10415779;28;20052;-68
2023/01/29 22:34:34;;;;;;;9.68;6.18;;;;;;;7.71;100.00;101842.50;10416208;28;20421;-68
2023/01/29 22:39:34;;;;;;;11.35;5.82;;;;;;;7.71;100.00;101844.34;10415974;28;20088;-68
2023/01/29 22:44:35;;;;;;;7.43;5.50;;;;;;;7.72;100.00;101841.47;10414915;28;20065;-68
2023/01/29 22:49:35;;;;;;;8.95;5.78;;;;;;;7.74;100.00;101846.72;10449507;28;20346;-68
2023/01/29 22:54:39;;;;;;;9.10;6.45;;;;;;;7.78;100.00;101842.72;10415969;28;20123;-68
2023/01/29 22:59:40;;;;;;;8.68;6.70;;;;;;;7.81;100.00;101832.47;10448355;28;20528;-68
2023/01/29 23:04:40;;;;;;;13.60;5.82;;;;;;;7.80;100.00;101822.69;10416186;28;20094;-68
2023/01/29 23:09:41;;;;;;;9.63;6.93;;;;;;;7.84;100.00;101807.03;10415185;28;20145;-68
2023/01/29 23:14:41;;;;;;;6.72;6.03;;;;;;;7.88;100.00;101800.31;10415075;28;20037;-68
2023/01/29 23:19:42;;;;;;;10.60;6.75;;;;;;;7.95;100.00;101812.19;10414725;28;20095;-68
2023/01/29 23:24:42;;;;;;;10.73;8.25;;;;;;;7.97;100.00;101795.84;10414860;28;20041;-68